Iselin, New Jersey
Current Conditions -  °F | °C
As of 3:55 PM on Sunday 21 Dec 2014 (Local Time) from KLDJ Reporting Station
Overcast Overcast  
Wind Chill: 35°   Ceiling: 3100
Heat Index: 40°   Visibility: 10mi
Dew Point: 31°   Wind: 7mph
Humidity: 71%   Direction: 340°NNW
Pressure: 30.32"   Gusts: NA
Location:  40.57°N, 74.32°W
Report Text: KLDJ 212055Z AUTO 34006KT 10SM SCT023 OVC031 04/00 A3032 RMK AO2 T00431005
Loading
Personal Weather Stations






























Interactive Weather Map New forecast layout! Learn more

10-Day Weather Forecast

Advertisements
Track Severe Weather on mobile